sensor_id;sensor_type;location;lat;lon;timestamp;temperature;humidity
61386;DHT22;47256;18.904;-99.054;2022-11-20T00:01:27;25.90;81.60
61386;DHT22;47256;18.904;-99.054;2022-11-20T00:03:56;25.90;82.00
61386;DHT22;47256;18.904;-99.054;2022-11-20T00:06:28;25.90;82.50
61386;DHT22;47256;18.904;-99.054;2022-11-20T00:08:57;25.80;83.20
61386;DHT22;47256;18.904;-99.054;2022-11-20T00:11:27;25.70;84.10
61386;DHT22;47256;18.904;-99.054;2022-11-20T00:13:57;25.60;83.80
61386;DHT22;47256;18.904;-99.054;2022-11-20T00:16:26;25.60;84.60
61386;DHT22;47256;18.904;-99.054;2022-11-20T00:18:56;25.50;84.50
61386;DHT22;47256;18.904;-99.054;2022-11-20T00:21:26;25.50;84.40
61386;DHT22;47256;18.904;-99.054;2022-11-20T00:23:55;25.40;84.10
61386;DHT22;47256;18.904;-99.054;2022-11-20T00:26:26;25.40;84.40
61386;DHT22;47256;18.904;-99.054;2022-11-20T00:28:58;25.30;84.40
61386;DHT22;47256;18.904;-99.054;2022-11-20T00:31:28;25.20;84.60
61386;DHT22;47256;18.904;-99.054;2022-11-20T00:33:56;25.20;85.10
61386;DHT22;47256;18.904;-99.054;2022-11-20T00:36:27;25.20;85.50
61386;DHT22;47256;18.904;-99.054;2022-11-20T00:38:56;25.20;85.70
61386;DHT22;47256;18.904;-99.054;2022-11-20T00:41:24;25.10;85.80
61386;DHT22;47256;18.904;-99.054;2022-11-20T00:43:53;25.00;85.90
61386;DHT22;47256;18.904;-99.054;2022-11-20T00:46:23;25.00;86.60
61386;DHT22;47256;18.904;-99.054;2022-11-20T00:48:50;24.90;87.00
61386;DHT22;47256;18.904;-99.054;2022-11-20T00:51:26;24.90;87.00
61386;DHT22;47256;18.904;-99.054;2022-11-20T00:53:57;24.80;86.70
61386;DHT22;47256;18.904;-99.054;2022-11-20T00:56:27;24.70;86.70
61386;DHT22;47256;18.904;-99.054;2022-11-20T00:58:54;24.50;86.90
61386;DHT22;47256;18.904;-99.054;2022-11-20T01:01:29;24.40;87.00
61386;DHT22;47256;18.904;-99.054;2022-11-20T01:03:59;24.40;87.10
61386;DHT22;47256;18.904;-99.054;2022-11-20T01:06:34;24.40;87.20
61386;DHT22;47256;18.904;-99.054;2022-11-20T01:09:11;24.40;87.80
61386;DHT22;47256;18.904;-99.054;2022-11-20T01:11:43;24.40;87.40
61386;DHT22;47256;18.904;-99.054;2022-11-20T01:14:14;24.30;87.60
61386;DHT22;47256;18.904;-99.054;2022-11-20T01:16:46;24.40;88.00
61386;DHT22;47256;18.904;-99.054;2022-11-20T01:19:21;24.30;87.60
61386;DHT22;47256;18.904;-99.054;2022-11-20T01:21:54;24.20;87.90
61386;DHT22;47256;18.904;-99.054;2022-11-20T01:24:23;24.20;87.90
61386;DHT22;47256;18.904;-99.054;2022-11-20T01:26:51;24.20;87.70
61386;DHT22;47256;18.904;-99.054;2022-11-20T01:29:23;24.10;88.00
61386;DHT22;47256;18.904;-99.054;2022-11-20T01:31:52;24.00;88.10
61386;DHT22;47256;18.904;-99.054;2022-11-20T01:34:21;23.90;88.30
61386;DHT22;47256;18.904;-99.054;2022-11-20T01:36:50;23.90;88.50
61386;DHT22;47256;18.904;-99.054;2022-11-20T01:39:21;23.80;88.80
61386;DHT22;47256;18.904;-99.054;2022-11-20T01:41:50;23.80;89.20
61386;DHT22;47256;18.904;-99.054;2022-11-20T01:44:58;23.90;90.00
61386;DHT22;47256;18.904;-99.054;2022-11-20T01:50:29;24.00;90.40
61386;DHT22;47256;18.904;-99.054;2022-11-20T01:53:01;23.90;90.10
61386;DHT22;47256;18.904;-99.054;2022-11-20T01:55:39;23.80;90.10
61386;DHT22;47256;18.904;-99.054;2022-11-20T01:58:07;23.90;90.00
61386;DHT22;47256;18.904;-99.054;2022-11-20T02:00:35;23.90;89.50
61386;DHT22;47256;18.904;-99.054;2022-11-20T02:03:11;23.90;89.60
61386;DHT22;47256;18.904;-99.054;2022-11-20T02:08:32;24.00;90.00
61386;DHT22;47256;18.904;-99.054;2022-11-20T02:10:59;24.10;90.10
61386;DHT22;47256;18.904;-99.054;2022-11-20T02:13:27;24.00;90.40
61386;DHT22;47256;18.904;-99.054;2022-11-20T02:16:24;23.90;90.50
61386;DHT22;47256;18.904;-99.054;2022-11-20T02:18:56;23.90;90.20
61386;DHT22;47256;18.904;-99.054;2022-11-20T02:24:32;23.90;90.20
61386;DHT22;47256;18.904;-99.054;2022-11-20T02:29:53;23.70;90.90
61386;DHT22;47256;18.904;-99.054;2022-11-20T02:32:28;23.60;91.40
61386;DHT22;47256;18.904;-99.054;2022-11-20T02:34:55;23.50;91.00
61386;DHT22;47256;18.904;-99.054;2022-11-20T02:37:34;23.40;90.80
61386;DHT22;47256;18.904;-99.054;2022-11-20T02:40:05;23.50;90.60
61386;DHT22;47256;18.904;-99.054;2022-11-20T02:42:34;23.50;90.50
61386;DHT22;47256;18.904;-99.054;2022-11-20T02:45:03;23.50;90.70
61386;DHT22;47256;18.904;-99.054;2022-11-20T02:47:32;23.50;90.50
61386;DHT22;47256;18.904;-99.054;2022-11-20T02:50:00;23.40;90.50
61386;DHT22;47256;18.904;-99.054;2022-11-20T02:52:34;23.40;90.50
61386;DHT22;47256;18.904;-99.054;2022-11-20T02:55:03;23.40;90.60
61386;DHT22;47256;18.904;-99.054;2022-11-20T02:57:34;23.40;90.60
61386;DHT22;47256;18.904;-99.054;2022-11-20T03:00:03;23.40;90.80
61386;DHT22;47256;18.904;-99.054;2022-11-20T03:02:34;23.30;91.10
61386;DHT22;47256;18.904;-99.054;2022-11-20T03:05:04;23.30;91.10
61386;DHT22;47256;18.904;-99.054;2022-11-20T03:07:33;23.10;91.50
61386;DHT22;47256;18.904;-99.054;2022-11-20T03:10:05;22.90;91.70
61386;DHT22;47256;18.904;-99.054;2022-11-20T03:12:34;22.80;92.00
61386;DHT22;47256;18.904;-99.054;2022-11-20T03:15:07;22.80;91.60
61386;DHT22;47256;18.904;-99.054;2022-11-20T03:17:36;22.90;92.00
61386;DHT22;47256;18.904;-99.054;2022-11-20T03:20:05;22.80;92.20
61386;DHT22;47256;18.904;-99.054;2022-11-20T03:22:41;22.70;92.10
61386;DHT22;47256;18.904;-99.054;2022-11-20T03:25:09;22.80;92.30
61386;DHT22;47256;18.904;-99.054;2022-11-20T03:27:38;22.80;92.10
61386;DHT22;47256;18.904;-99.054;2022-11-20T03:30:32;22.80;92.00
61386;DHT22;47256;18.904;-99.054;2022-11-20T03:33:02;22.80;92.00
61386;DHT22;47256;18.904;-99.054;2022-11-20T03:35:42;22.80;92.00
61386;DHT22;47256;18.904;-99.054;2022-11-20T03:38:10;22.70;92.40
61386;DHT22;47256;18.904;-99.054;2022-11-20T03:40:39;22.60;92.20
61386;DHT22;47256;18.904;-99.054;2022-11-20T03:43:09;22.40;92.50
61386;DHT22;47256;18.904;-99.054;2022-11-20T03:45:38;22.30;92.30
61386;DHT22;47256;18.904;-99.054;2022-11-20T03:48:06;22.30;92.40
61386;DHT22;47256;18.904;-99.054;2022-11-20T03:50:38;22.30;92.70
61386;DHT22;47256;18.904;-99.054;2022-11-20T03:53:08;22.30;92.70
61386;DHT22;47256;18.904;-99.054;2022-11-20T03:55:40;22.20;92.60
61386;DHT22;47256;18.904;-99.054;2022-11-20T03:58:09;22.20;92.90
61386;DHT22;47256;18.904;-99.054;2022-11-20T04:00:40;22.30;92.50
61386;DHT22;47256;18.904;-99.054;2022-11-20T04:03:13;22.30;92.30
61386;DHT22;47256;18.904;-99.054;2022-11-20T04:05:42;22.40;92.00
61386;DHT22;47256;18.904;-99.054;2022-11-20T04:08:20;22.30;91.90
61386;DHT22;47256;18.904;-99.054;2022-11-20T04:10:49;22.30;92.10
61386;DHT22;47256;18.904;-99.054;2022-11-20T04:13:18;22.30;92.30
61386;DHT22;47256;18.904;-99.054;2022-11-20T04:15:46;22.20;92.30
61386;DHT22;47256;18.904;-99.054;2022-11-20T04:18:17;22.20;92.20
61386;DHT22;47256;18.904;-99.054;2022-11-20T04:20:45;22.20;92.20
61386;DHT22;47256;18.904;-99.054;2022-11-20T04:23:14;22.20;92.50
61386;DHT22;47256;18.904;-99.054;2022-11-20T04:25:42;22.00;92.60
61386;DHT22;47256;18.904;-99.054;2022-11-20T04:28:10;22.00;92.70
61386;DHT22;47256;18.904;-99.054;2022-11-20T04:30:40;22.00;92.90
61386;DHT22;47256;18.904;-99.054;2022-11-20T04:33:10;21.80;93.00
61386;DHT22;47256;18.904;-99.054;2022-11-20T04:35:39;21.80;93.10
61386;DHT22;47256;18.904;-99.054;2022-11-20T04:38:07;21.70;93.30
61386;DHT22;47256;18.904;-99.054;2022-11-20T04:40:36;21.70;93.30
61386;DHT22;47256;18.904;-99.054;2022-11-20T04:43:06;21.70;93.40
61386;DHT22;47256;18.904;-99.054;2022-11-20T04:45:37;21.60;93.40
61386;DHT22;47256;18.904;-99.054;2022-11-20T04:48:05;21.60;93.40
61386;DHT22;47256;18.904;-99.054;2022-11-20T04:50:40;21.50;93.20
61386;DHT22;47256;18.904;-99.054;2022-11-20T04:53:15;21.60;93.20
61386;DHT22;47256;18.904;-99.054;2022-11-20T04:55:44;21.70;93.10
61386;DHT22;47256;18.904;-99.054;2022-11-20T04:58:12;21.70;93.00
61386;DHT22;47256;18.904;-99.054;2022-11-20T05:00:40;21.70;92.90
61386;DHT22;47256;18.904;-99.054;2022-11-20T05:03:07;21.70;92.80
61386;DHT22;47256;18.904;-99.054;2022-11-20T05:05:36;21.70;93.00
61386;DHT22;47256;18.904;-99.054;2022-11-20T05:08:03;21.70;93.00
61386;DHT22;47256;18.904;-99.054;2022-11-20T05:10:30;21.50;93.10
61386;DHT22;47256;18.904;-99.054;2022-11-20T05:12:57;21.60;93.20
61386;DHT22;47256;18.904;-99.054;2022-11-20T05:15:26;21.60;93.10
61386;DHT22;47256;18.904;-99.054;2022-11-20T05:17:53;21.60;93.60
61386;DHT22;47256;18.904;-99.054;2022-11-20T05:20:20;21.60;93.10
61386;DHT22;47256;18.904;-99.054;2022-11-20T05:22:47;21.60;93.50
61386;DHT22;47256;18.904;-99.054;2022-11-20T05:25:15;21.50;93.30
61386;DHT22;47256;18.904;-99.054;2022-11-20T05:27:43;21.40;93.50
61386;DHT22;47256;18.904;-99.054;2022-11-20T05:30:11;21.30;93.50
61386;DHT22;47256;18.904;-99.054;2022-11-20T05:32:39;21.40;93.70
61386;DHT22;47256;18.904;-99.054;2022-11-20T05:35:07;21.50;93.70
61386;DHT22;47256;18.904;-99.054;2022-11-20T05:37:34;21.50;93.60
61386;DHT22;47256;18.904;-99.054;2022-11-20T05:40:01;21.40;93.60
61386;DHT22;47256;18.904;-99.054;2022-11-20T05:42:30;21.30;93.70
61386;DHT22;47256;18.904;-99.054;2022-11-20T05:44:59;21.30;93.80
61386;DHT22;47256;18.904;-99.054;2022-11-20T05:47:27;21.30;93.70
61386;DHT22;47256;18.904;-99.054;2022-11-20T05:49:55;21.40;93.70
61386;DHT22;47256;18.904;-99.054;2022-11-20T05:52:30;21.30;93.80
61386;DHT22;47256;18.904;-99.054;2022-11-20T05:54:58;21.30;93.90
61386;DHT22;47256;18.904;-99.054;2022-11-20T05:57:26;21.30;93.70
61386;DHT22;47256;18.904;-99.054;2022-11-20T05:59:53;21.20;93.70
61386;DHT22;47256;18.904;-99.054;2022-11-20T06:02:22;21.20;93.80
61386;DHT22;47256;18.904;-99.054;2022-11-20T06:04:50;21.20;93.90
61386;DHT22;47256;18.904;-99.054;2022-11-20T06:07:19;21.00;94.20
61386;DHT22;47256;18.904;-99.054;2022-11-20T06:09:47;20.90;94.60
61386;DHT22;47256;18.904;-99.054;2022-11-20T06:12:13;21.00;94.50
61386;DHT22;47256;18.904;-99.054;2022-11-20T06:14:41;21.00;94.40
61386;DHT22;47256;18.904;-99.054;2022-11-20T06:17:09;21.00;94.20
61386;DHT22;47256;18.904;-99.054;2022-11-20T06:19:36;21.00;94.30
61386;DHT22;47256;18.904;-99.054;2022-11-20T06:22:03;21.10;94.20
61386;DHT22;47256;18.904;-99.054;2022-11-20T06:24:31;21.00;94.20
61386;DHT22;47256;18.904;-99.054;2022-11-20T06:26:58;20.90;94.30
61386;DHT22;47256;18.904;-99.054;2022-11-20T06:29:25;20.90;94.40
61386;DHT22;47256;18.904;-99.054;2022-11-20T06:31:52;20.90;94.40
61386;DHT22;47256;18.904;-99.054;2022-11-20T06:34:19;20.90;94.40
61386;DHT22;47256;18.904;-99.054;2022-11-20T06:36:46;21.00;94.10
61386;DHT22;47256;18.904;-99.054;2022-11-20T06:39:13;21.00;94.00
61386;DHT22;47256;18.904;-99.054;2022-11-20T06:41:40;20.90;94.00
61386;DHT22;47256;18.904;-99.054;2022-11-20T06:44:08;20.80;94.00
61386;DHT22;47256;18.904;-99.054;2022-11-20T06:46:37;20.90;94.00
61386;DHT22;47256;18.904;-99.054;2022-11-20T06:49:04;20.80;94.00
61386;DHT22;47256;18.904;-99.054;2022-11-20T06:51:34;20.70;93.90
61386;DHT22;47256;18.904;-99.054;2022-11-20T06:54:02;20.60;94.20
61386;DHT22;47256;18.904;-99.054;2022-11-20T06:56:30;20.50;94.30
61386;DHT22;47256;18.904;-99.054;2022-11-20T06:58:57;20.60;94.40
61386;DHT22;47256;18.904;-99.054;2022-11-20T07:01:25;20.70;94.20
61386;DHT22;47256;18.904;-99.054;2022-11-20T07:03:52;20.70;94.10
61386;DHT22;47256;18.904;-99.054;2022-11-20T07:06:19;20.80;94.00
61386;DHT22;47256;18.904;-99.054;2022-11-20T07:08:46;20.80;93.90
61386;DHT22;47256;18.904;-99.054;2022-11-20T07:11:14;20.80;94.00
61386;DHT22;47256;18.904;-99.054;2022-11-20T07:13:41;20.80;94.00
61386;DHT22;47256;18.904;-99.054;2022-11-20T07:16:09;20.90;94.00
61386;DHT22;47256;18.904;-99.054;2022-11-20T07:18:36;20.90;93.90
61386;DHT22;47256;18.904;-99.054;2022-11-20T07:21:08;20.70;94.20
61386;DHT22;47256;18.904;-99.054;2022-11-20T07:23:38;20.60;94.30
61386;DHT22;47256;18.904;-99.054;2022-11-20T07:26:07;20.60;94.30
61386;DHT22;47256;18.904;-99.054;2022-11-20T07:28:35;20.60;94.30
61386;DHT22;47256;18.904;-99.054;2022-11-20T07:31:02;20.60;94.40
61386;DHT22;47256;18.904;-99.054;2022-11-20T07:33:32;20.60;94.40
61386;DHT22;47256;18.904;-99.054;2022-11-20T07:36:00;20.50;94.70
61386;DHT22;47256;18.904;-99.054;2022-11-20T07:38:30;20.50;94.80
61386;DHT22;47256;18.904;-99.054;2022-11-20T07:40:57;20.40;94.70
61386;DHT22;47256;18.904;-99.054;2022-11-20T07:43:32;20.50;94.70
61386;DHT22;47256;18.904;-99.054;2022-11-20T07:46:04;20.50;94.60
61386;DHT22;47256;18.904;-99.054;2022-11-20T07:48:31;20.50;94.60
61386;DHT22;47256;18.904;-99.054;2022-11-20T07:51:00;20.40;94.90
61386;DHT22;47256;18.904;-99.054;2022-11-20T07:53:32;20.50;94.70
61386;DHT22;47256;18.904;-99.054;2022-11-20T07:56:02;20.50;94.80
61386;DHT22;47256;18.904;-99.054;2022-11-20T07:58:30;20.30;94.90
61386;DHT22;47256;18.904;-99.054;2022-11-20T08:01:08;20.20;95.20
61386;DHT22;47256;18.904;-99.054;2022-11-20T08:03:37;20.10;95.20
61386;DHT22;47256;18.904;-99.054;2022-11-20T08:06:06;20.10;95.40
61386;DHT22;47256;18.904;-99.054;2022-11-20T08:08:34;20.10;95.20
61386;DHT22;47256;18.904;-99.054;2022-11-20T08:11:01;20.10;95.40
61386;DHT22;47256;18.904;-99.054;2022-11-20T08:13:50;20.00;95.30
61386;DHT22;47256;18.904;-99.054;2022-11-20T08:16:56;20.10;95.50
61386;DHT22;47256;18.904;-99.054;2022-11-20T08:19:25;20.20;95.30
61386;DHT22;47256;18.904;-99.054;2022-11-20T08:21:53;20.20;95.20
61386;DHT22;47256;18.904;-99.054;2022-11-20T08:24:19;20.30;95.30
61386;DHT22;47256;18.904;-99.054;2022-11-20T08:26:48;20.30;95.40
61386;DHT22;47256;18.904;-99.054;2022-11-20T08:29:15;20.30;95.10
61386;DHT22;47256;18.904;-99.054;2022-11-20T08:31:43;20.30;95.10
61386;DHT22;47256;18.904;-99.054;2022-11-20T08:34:10;20.00;95.60
61386;DHT22;47256;18.904;-99.054;2022-11-20T08:36:38;19.90;95.70
61386;DHT22;47256;18.904;-99.054;2022-11-20T08:39:05;19.90;95.70
61386;DHT22;47256;18.904;-99.054;2022-11-20T08:41:33;19.90;95.80
61386;DHT22;47256;18.904;-99.054;2022-11-20T08:44:02;19.90;95.90
61386;DHT22;47256;18.904;-99.054;2022-11-20T08:46:35;20.00;96.10
61386;DHT22;47256;18.904;-99.054;2022-11-20T08:49:11;20.10;96.00
61386;DHT22;47256;18.904;-99.054;2022-11-20T08:51:43;20.10;95.90
61386;DHT22;47256;18.904;-99.054;2022-11-20T08:54:11;20.10;95.40
61386;DHT22;47256;18.904;-99.054;2022-11-20T08:56:38;20.00;95.50
61386;DHT22;47256;18.904;-99.054;2022-11-20T08:59:05;20.00;95.30
61386;DHT22;47256;18.904;-99.054;2022-11-20T09:01:32;20.00;95.60
61386;DHT22;47256;18.904;-99.054;2022-11-20T09:04:00;20.10;95.60
61386;DHT22;47256;18.904;-99.054;2022-11-20T09:06:27;20.00;95.40
61386;DHT22;47256;18.904;-99.054;2022-11-20T09:08:54;19.90;95.60
61386;DHT22;47256;18.904;-99.054;2022-11-20T09:11:23;19.90;95.70
61386;DHT22;47256;18.904;-99.054;2022-11-20T09:13:50;20.00;95.50
61386;DHT22;47256;18.904;-99.054;2022-11-20T09:16:17;20.10;95.50
61386;DHT22;47256;18.904;-99.054;2022-11-20T09:18:44;20.10;95.30
61386;DHT22;47256;18.904;-99.054;2022-11-20T09:21:12;20.20;95.20
61386;DHT22;47256;18.904;-99.054;2022-11-20T09:23:40;20.20;95.40
61386;DHT22;47256;18.904;-99.054;2022-11-20T09:26:12;20.10;95.30
61386;DHT22;47256;18.904;-99.054;2022-11-20T09:28:40;20.10;95.50
61386;DHT22;47256;18.904;-99.054;2022-11-20T09:31:09;20.10;95.30
61386;DHT22;47256;18.904;-99.054;2022-11-20T09:33:39;20.10;95.50
61386;DHT22;47256;18.904;-99.054;2022-11-20T09:36:06;20.10;95.40
61386;DHT22;47256;18.904;-99.054;2022-11-20T09:38:34;20.10;95.40
61386;DHT22;47256;18.904;-99.054;2022-11-20T09:41:05;20.10;95.40
61386;DHT22;47256;18.904;-99.054;2022-11-20T09:43:57;20.20;95.40
61386;DHT22;47256;18.904;-99.054;2022-11-20T09:49:30;20.10;96.10
61386;DHT22;47256;18.904;-99.054;2022-11-20T09:52:12;20.10;96.10
61386;DHT22;47256;18.904;-99.054;2022-11-20T09:54:44;20.00;95.90
61386;DHT22;47256;18.904;-99.054;2022-11-20T09:57:21;20.00;95.80
61386;DHT22;47256;18.904;-99.054;2022-11-20T09:59:56;20.10;95.70
61386;DHT22;47256;18.904;-99.054;2022-11-20T10:02:48;20.10;95.90
61386;DHT22;47256;18.904;-99.054;2022-11-20T10:05:36;20.10;96.00
61386;DHT22;47256;18.904;-99.054;2022-11-20T10:11:46;20.10;96.10
61386;DHT22;47256;18.904;-99.054;2022-11-20T10:17:15;20.10;96.20
61386;DHT22;47256;18.904;-99.054;2022-11-20T10:20:18;20.10;96.40
61386;DHT22;47256;18.904;-99.054;2022-11-20T10:26:24;19.90;96.20
61386;DHT22;47256;18.904;-99.054;2022-11-20T10:29:22;19.90;96.50
61386;DHT22;47256;18.904;-99.054;2022-11-20T10:32:01;19.90;96.50
61386;DHT22;47256;18.904;-99.054;2022-11-20T10:38:00;19.90;96.70
61386;DHT22;47256;18.904;-99.054;2022-11-20T10:40:43;19.90;96.50
61386;DHT22;47256;18.904;-99.054;2022-11-20T10:43:21;19.80;96.40
61386;DHT22;47256;18.904;-99.054;2022-11-20T10:46:08;19.80;96.50
61386;DHT22;47256;18.904;-99.054;2022-11-20T10:48:38;19.80;96.40
61386;DHT22;47256;18.904;-99.054;2022-11-20T10:57:54;19.70;96.20
61386;DHT22;47256;18.904;-99.054;2022-11-20T11:00:22;19.60;96.20
61386;DHT22;47256;18.904;-99.054;2022-11-20T11:02:52;19.60;96.40
61386;DHT22;47256;18.904;-99.054;2022-11-20T11:08:14;19.70;96.40
61386;DHT22;47256;18.904;-99.054;2022-11-20T11:13:26;19.70;96.50
61386;DHT22;47256;18.904;-99.054;2022-11-20T11:15:54;19.70;96.40
61386;DHT22;47256;18.904;-99.054;2022-11-20T11:18:33;19.60;96.50
61386;DHT22;47256;18.904;-99.054;2022-11-20T11:21:04;19.50;96.60
61386;DHT22;47256;18.904;-99.054;2022-11-20T11:26:03;19.50;96.60
61386;DHT22;47256;18.904;-99.054;2022-11-20T11:28:32;19.60;96.40
61386;DHT22;47256;18.904;-99.054;2022-11-20T11:30:59;19.50;96.40
61386;DHT22;47256;18.904;-99.054;2022-11-20T11:33:32;19.50;96.60
61386;DHT22;47256;18.904;-99.054;2022-11-20T11:36:19;19.60;96.40
61386;DHT22;47256;18.904;-99.054;2022-11-20T11:38:51;19.60;96.50
61386;DHT22;47256;18.904;-99.054;2022-11-20T11:41:28;19.60;96.60
61386;DHT22;47256;18.904;-99.054;2022-11-20T11:43:57;19.60;96.90
61386;DHT22;47256;18.904;-99.054;2022-11-20T11:46:55;19.60;96.80
61386;DHT22;47256;18.904;-99.054;2022-11-20T11:49:24;19.60;96.70
61386;DHT22;47256;18.904;-99.054;2022-11-20T11:52:17;19.70;96.60
61386;DHT22;47256;18.904;-99.054;2022-11-20T11:54:55;19.70;97.00
61386;DHT22;47256;18.904;-99.054;2022-11-20T12:00:13;19.60;96.90
61386;DHT22;47256;18.904;-99.054;2022-11-20T12:02:49;19.60;96.90
61386;DHT22;47256;18.904;-99.054;2022-11-20T12:08:02;19.50;96.90
61386;DHT22;47256;18.904;-99.054;2022-11-20T12:13:04;19.60;97.00
61386;DHT22;47256;18.904;-99.054;2022-11-20T12:15:35;19.50;96.90
61386;DHT22;47256;18.904;-99.054;2022-11-20T12:18:04;19.60;96.80
61386;DHT22;47256;18.904;-99.054;2022-11-20T12:20:45;19.60;96.80
61386;DHT22;47256;18.904;-99.054;2022-11-20T12:23:22;19.60;96.80
61386;DHT22;47256;18.904;-99.054;2022-11-20T12:25:56;19.60;96.80
61386;DHT22;47256;18.904;-99.054;2022-11-20T12:28:44;19.50;96.90
61386;DHT22;47256;18.904;-99.054;2022-11-20T12:31:32;19.50;96.90
61386;DHT22;47256;18.904;-99.054;2022-11-20T12:37:37;19.50;96.80
61386;DHT22;47256;18.904;-99.054;2022-11-20T12:43:26;19.40;97.10
61386;DHT22;47256;18.904;-99.054;2022-11-20T12:47:22;19.30;97.10
61386;DHT22;47256;18.904;-99.054;2022-11-20T12:49:41;19.20;97.30
61386;DHT22;47256;18.904;-99.054;2022-11-20T13:01:37;19.20;97.60
61386;DHT22;47256;18.904;-99.054;2022-11-20T13:07:03;19.30;97.60
61386;DHT22;47256;18.904;-99.054;2022-11-20T13:09:33;19.30;97.60
61386;DHT22;47256;18.904;-99.054;2022-11-20T13:12:39;19.20;97.80
61386;DHT22;47256;18.904;-99.054;2022-11-20T13:17:54;19.20;98.20
61386;DHT22;47256;18.904;-99.054;2022-11-20T13:20:23;19.20;98.10
61386;DHT22;47256;18.904;-99.054;2022-11-20T13:22:54;19.30;98.40
61386;DHT22;47256;18.904;-99.054;2022-11-20T13:25:35;19.40;98.00
61386;DHT22;47256;18.904;-99.054;2022-11-20T13:30:53;19.40;98.10
61386;DHT22;47256;18.904;-99.054;2022-11-20T13:33:33;19.40;98.10
61386;DHT22;47256;18.904;-99.054;2022-11-20T13:36:07;19.40;97.80
61386;DHT22;47256;18.904;-99.054;2022-11-20T13:38:50;19.40;97.80
61386;DHT22;47256;18.904;-99.054;2022-11-20T13:41:28;19.20;97.80
61386;DHT22;47256;18.904;-99.054;2022-11-20T13:46:46;19.10;98.20
61386;DHT22;47256;18.904;-99.054;2022-11-20T13:49:37;19.20;98.10
61386;DHT22;47256;18.904;-99.054;2022-11-20T14:00:23;19.40;98.10
61386;DHT22;47256;18.904;-99.054;2022-11-20T14:03:08;19.50;97.90
61386;DHT22;47256;18.904;-99.054;2022-11-20T14:06:02;19.60;97.70
61386;DHT22;47256;18.904;-99.054;2022-11-20T14:11:35;19.70;97.70
61386;DHT22;47256;18.904;-99.054;2022-11-20T14:14:18;19.70;98.10
61386;DHT22;47256;18.904;-99.054;2022-11-20T14:16:46;19.80;98.50
61386;DHT22;47256;18.904;-99.054;2022-11-20T14:21:48;19.90;97.90
61386;DHT22;47256;18.904;-99.054;2022-11-20T14:24:22;20.00;98.10
61386;DHT22;47256;18.904;-99.054;2022-11-20T14:26:50;20.00;99.00
61386;DHT22;47256;18.904;-99.054;2022-11-20T14:29:32;20.10;98.80
61386;DHT22;47256;18.904;-99.054;2022-11-20T14:32:01;20.10;98.70
61386;DHT22;47256;18.904;-99.054;2022-11-20T14:34:35;20.10;99.10
61386;DHT22;47256;18.904;-99.054;2022-11-20T14:37:09;20.10;98.20
61386;DHT22;47256;18.904;-99.054;2022-11-20T14:39:43;20.10;98.70
61386;DHT22;47256;18.904;-99.054;2022-11-20T14:42:22;20.20;98.80
61386;DHT22;47256;18.904;-99.054;2022-11-20T14:44:57;20.30;98.70
61386;DHT22;47256;18.904;-99.054;2022-11-20T14:47:30;20.20;99.00
61386;DHT22;47256;18.904;-99.054;2022-11-20T14:49:58;20.30;99.10
61386;DHT22;47256;18.904;-99.054;2022-11-20T14:52:29;20.40;98.80
61386;DHT22;47256;18.904;-99.054;2022-11-20T14:54:58;20.50;98.40
61386;DHT22;47256;18.904;-99.054;2022-11-20T14:57:33;20.60;97.80
61386;DHT22;47256;18.904;-99.054;2022-11-20T15:00:07;20.70;98.20
61386;DHT22;47256;18.904;-99.054;2022-11-20T15:02:47;20.80;98.20
61386;DHT22;47256;18.904;-99.054;2022-11-20T15:05:23;20.90;98.00
61386;DHT22;47256;18.904;-99.054;2022-11-20T15:08:06;21.10;97.40
61386;DHT22;47256;18.904;-99.054;2022-11-20T15:10:35;21.40;97.60
61386;DHT22;47256;18.904;-99.054;2022-11-20T15:13:05;21.50;96.80
61386;DHT22;47256;18.904;-99.054;2022-11-20T15:15:51;21.60;97.00
61386;DHT22;47256;18.904;-99.054;2022-11-20T15:18:36;21.70;96.70
61386;DHT22;47256;18.904;-99.054;2022-11-20T15:21:13;21.80;97.20
61386;DHT22;47256;18.904;-99.054;2022-11-20T15:23:42;22.00;96.50
61386;DHT22;47256;18.904;-99.054;2022-11-20T15:26:13;22.00;96.20
61386;DHT22;47256;18.904;-99.054;2022-11-20T15:28:44;22.00;96.00
61386;DHT22;47256;18.904;-99.054;2022-11-20T15:31:16;22.00;95.60
61386;DHT22;47256;18.904;-99.054;2022-11-20T15:33:44;21.90;95.80
61386;DHT22;47256;18.904;-99.054;2022-11-20T15:36:12;21.90;95.50
61386;DHT22;47256;18.904;-99.054;2022-11-20T15:38:41;21.90;96.00
61386;DHT22;47256;18.904;-99.054;2022-11-20T15:41:09;22.00;96.10
61386;DHT22;47256;18.904;-99.054;2022-11-20T15:43:37;22.10;96.20
61386;DHT22;47256;18.904;-99.054;2022-11-20T15:46:16;22.10;96.10
61386;DHT22;47256;18.904;-99.054;2022-11-20T15:48:54;22.10;95.70
61386;DHT22;47256;18.904;-99.054;2022-11-20T15:51:28;22.10;96.00
61386;DHT22;47256;18.904;-99.054;2022-11-20T15:53:56;22.10;95.40
61386;DHT22;47256;18.904;-99.054;2022-11-20T15:56:25;22.10;95.30
61386;DHT22;47256;18.904;-99.054;2022-11-20T15:58:54;22.10;95.00
61386;DHT22;47256;18.904;-99.054;2022-11-20T16:01:22;22.10;94.20
61386;DHT22;47256;18.904;-99.054;2022-11-20T16:03:49;22.20;94.20
61386;DHT22;47256;18.904;-99.054;2022-11-20T16:06:16;22.20;94.10
61386;DHT22;47256;18.904;-99.054;2022-11-20T16:08:45;22.30;93.70
61386;DHT22;47256;18.904;-99.054;2022-11-20T16:11:16;22.40;93.70
61386;DHT22;47256;18.904;-99.054;2022-11-20T16:13:44;22.50;93.90
61386;DHT22;47256;18.904;-99.054;2022-11-20T16:16:34;22.60;94.40
61386;DHT22;47256;18.904;-99.054;2022-11-20T16:19:02;22.70;93.70
61386;DHT22;47256;18.904;-99.054;2022-11-20T16:21:33;22.80;93.50
61386;DHT22;47256;18.904;-99.054;2022-11-20T16:24:03;22.90;93.00
61386;DHT22;47256;18.904;-99.054;2022-11-20T16:26:32;23.00;93.40
61386;DHT22;47256;18.904;-99.054;2022-11-20T16:29:00;23.00;92.70
61386;DHT22;47256;18.904;-99.054;2022-11-20T16:31:29;23.10;93.10
61386;DHT22;47256;18.904;-99.054;2022-11-20T16:33:58;23.30;92.80
61386;DHT22;47256;18.904;-99.054;2022-11-20T16:36:26;23.40;91.20
61386;DHT22;47256;18.904;-99.054;2022-11-20T16:38:59;23.30;91.50
61386;DHT22;47256;18.904;-99.054;2022-11-20T16:41:30;23.40;91.00
61386;DHT22;47256;18.904;-99.054;2022-11-20T16:44:00;23.50;91.30
61386;DHT22;47256;18.904;-99.054;2022-11-20T16:46:30;23.60;90.30
61386;DHT22;47256;18.904;-99.054;2022-11-20T16:49:03;23.90;90.00
61386;DHT22;47256;18.904;-99.054;2022-11-20T16:51:34;24.10;90.10
61386;DHT22;47256;18.904;-99.054;2022-11-20T16:54:05;24.40;90.20
61386;DHT22;47256;18.904;-99.054;2022-11-20T16:56:32;24.50;89.70
61386;DHT22;47256;18.904;-99.054;2022-11-20T16:59:00;24.40;87.40
61386;DHT22;47256;18.904;-99.054;2022-11-20T17:01:29;24.30;89.50
61386;DHT22;47256;18.904;-99.054;2022-11-20T17:03:58;24.40;90.10